Time;durP1;ratioP1;P1;durP2;ratioP2;P2;SDS_P1;SDS_P2;PMS_P1;PMS_P2;Temp;Humidity;BMP_temperature;BMP_pressure;BME280_temperature;BME280_humidity;BME280_pressure;Samples;Min_cycle;Max_cycle;Signal;HPM_P1;HPM_P2
2023/06/17 00:00:08;;;;;;;9.13;4.63;;;;;;;18.13;62.48;96076.06;6270905;28;20048;-69
2023/06/17 00:03:15;;;;;;;11.52;4.97;;;;;;;18.06;62.58;96069.72;6264970;28;20128;-70
2023/06/17 00:06:16;;;;;;;8.95;4.75;;;;;;;18.07;62.75;96071.41;6267818;28;20479;-74
2023/06/17 00:09:23;;;;;;;12.60;4.60;;;;;;;18.06;62.43;96085.69;6270674;28;20071;-73
2023/06/17 00:12:31;;;;;;;10.40;4.63;;;;;;;18.26;61.95;96086.19;6270717;28;20029;-72
2023/06/17 00:15:36;;;;;;;11.27;4.90;;;;;;;18.25;62.01;96074.72;6270123;28;20052;-73
2023/06/17 00:18:43;;;;;;;8.05;4.30;;;;;;;18.14;61.83;96077.72;6269129;28;20060;-71
2023/06/17 00:21:49;;;;;;;8.38;4.20;;;;;;;18.06;61.93;96070.59;6268301;28;20049;-72
2023/06/17 00:24:54;;;;;;;5.22;4.13;;;;;;;18.06;62.20;96086.56;6268629;28;20044;-72
2023/06/17 00:28:03;;;;;;;7.93;4.05;;;;;;;18.08;61.95;96086.38;6264105;28;20049;-72
2023/06/17 00:31:07;;;;;;;6.63;3.92;;;;;;;18.14;61.74;96083.88;6268531;28;20478;-73
2023/06/17 00:34:13;;;;;;;10.77;4.65;;;;;;;18.20;61.74;96079.72;6262921;28;20526;-72
2023/06/17 00:37:21;;;;;;;11.05;5.45;;;;;;;18.26;61.57;96092.38;6265625;28;20045;-71
2023/06/17 00:40:28;;;;;;;9.52;5.15;;;;;;;18.32;61.60;96081.06;6270457;28;20609;-71
2023/06/17 00:43:33;;;;;;;7.30;4.10;;;;;;;18.40;61.39;96081.06;6270564;28;20055;-71
2023/06/17 00:46:38;;;;;;;10.25;4.72;;;;;;;18.49;61.58;96081.06;6270373;28;20057;-70
2023/06/17 00:49:44;;;;;;;9.48;5.13;;;;;;;18.54;61.35;96068.91;6269741;28;20045;-71
2023/06/17 00:52:51;;;;;;;13.45;4.40;;;;;;;18.56;61.08;96060.72;6268655;28;20052;-71
2023/06/17 00:55:58;;;;;;;10.30;4.75;;;;;;;18.50;61.58;96067.56;6271221;28;20044;-71
2023/06/17 00:59:01;;;;;;;9.60;4.78;;;;;;;18.46;61.11;96060.91;6270133;28;20053;-71
2023/06/17 01:02:09;;;;;;;9.98;4.68;;;;;;;18.49;60.84;96054.41;6271280;28;20037;-70
2023/06/17 01:05:16;;;;;;;13.77;4.60;;;;;;;18.55;60.56;96059.06;6269116;28;20040;-71
2023/06/17 01:08:28;;;;;;;6.60;4.32;;;;;;;18.68;60.49;96054.03;6268481;28;20129;-72
2023/06/17 01:11:35;;;;;;;10.60;4.38;;;;;;;18.88;60.14;96056.34;6268991;28;20414;-70
2023/06/17 01:14:42;;;;;;;8.20;5.07;;;;;;;18.99;60.14;96055.97;6270663;28;20049;-71
2023/06/17 01:17:54;;;;;;;8.63;5.07;;;;;;;19.11;59.87;96067.97;6270250;28;20041;-71
2023/06/17 01:20:58;;;;;;;9.57;4.25;;;;;;;19.19;59.61;96078.59;6269513;28;20056;-71
2023/06/17 01:24:02;;;;;;;12.32;6.05;;;;;;;19.24;59.47;96064.72;6268702;28;20045;-71
2023/06/17 01:27:04;;;;;;;11.32;4.75;;;;;;;19.24;59.44;96049.56;6269599;28;20071;-71
2023/06/17 01:30:08;;;;;;;10.20;4.85;;;;;;;19.28;59.29;96034.88;6265522;28;20033;-71
2023/06/17 01:33:15;;;;;;;10.02;5.35;;;;;;;19.30;59.18;96032.03;6267934;28;20470;-71
2023/06/17 01:36:26;;;;;;;12.57;5.30;;;;;;;19.36;59.41;96041.16;6268657;28;20053;-71
2023/06/17 01:39:33;;;;;;;11.32;5.32;;;;;;;19.36;59.83;96042.00;6268419;28;20127;-72
2023/06/17 01:42:43;;;;;;;13.90;5.32;;;;;;;19.41;59.79;96041.47;6269112;28;20061;-71
2023/06/17 01:45:46;;;;;;;10.95;5.70;;;;;;;19.56;59.19;96034.41;6269756;28;20122;-71
2023/06/17 01:48:53;;;;;;;12.52;6.70;;;;;;;19.77;58.48;96041.81;6269977;28;20052;-71
2023/06/17 01:51:57;;;;;;;19.38;6.43;;;;;;;19.91;58.23;96040.22;6269816;28;20052;-71
2023/06/17 01:54:59;;;;;;;11.43;4.90;;;;;;;19.96;58.31;96032.50;6268006;28;20409;-71
2023/06/17 01:58:05;;;;;;;16.08;5.65;;;;;;;19.94;58.32;96031.84;6279138;28;20040;-71
2023/06/17 02:01:06;;;;;;;11.38;6.38;;;;;;;20.01;58.29;96013.25;6268979;28;20048;-72
2023/06/17 02:04:10;;;;;;;9.07;5.50;;;;;;;20.04;58.40;96013.75;6269162;28;20041;-72
2023/06/17 02:07:16;;;;;;;15.52;5.90;;;;;;;20.16;57.66;96017.66;6269435;28;20033;-71
2023/06/17 02:10:22;;;;;;;13.52;5.15;;;;;;;20.34;57.27;96019.16;6267643;28;20037;-71
2023/06/17 02:13:28;;;;;;;17.05;5.93;;;;;;;20.53;56.06;96012.50;6271979;28;20037;-71
2023/06/17 02:16:33;;;;;;;17.33;7.22;;;;;;;20.60;54.99;96018.75;6294178;28;20469;-70
2023/06/17 02:19:39;;;;;;;23.80;12.95;;;;;;;20.66;54.54;96018.03;6286871;28;20561;-72
2023/06/17 02:22:43;;;;;;;25.15;12.88;;;;;;;20.67;54.21;96014.34;6267561;28;20044;-71
2023/06/17 02:25:50;;;;;;;15.90;6.65;;;;;;;20.87;53.28;96024.50;6267537;28;20044;-70
2023/06/17 02:28:56;;;;;;;11.45;6.07;;;;;;;21.16;52.45;96015.63;6267464;28;20070;-71
2023/06/17 02:32:00;;;;;;;9.10;5.03;;;;;;;21.57;51.57;96023.13;6276720;28;20035;-73
2023/06/17 02:35:04;;;;;;;14.57;5.65;;;;;;;21.89;50.59;96011.13;6268935;28;20057;-72
2023/06/17 02:38:13;;;;;;;18.05;5.65;;;;;;;22.06;49.99;96003.66;6268503;28;20052;-72
2023/06/17 02:41:16;;;;;;;15.10;6.00;;;;;;;22.08;50.22;96006.97;6268435;28;20044;-72
2023/06/17 02:44:18;;;;;;;18.85;6.43;;;;;;;22.24;50.47;95997.88;6268644;28;20041;-71
2023/06/17 02:47:24;;;;;;;14.38;6.78;;;;;;;22.44;50.12;96000.69;6270932;28;20037;-72
2023/06/17 02:50:32;;;;;;;22.95;7.57;;;;;;;22.53;49.36;95994.16;6293910;28;20041;-72
2023/06/17 02:53:36;;;;;;;19.10;8.38;;;;;;;22.52;49.46;95993.34;6282785;28;20045;-72
2023/06/17 02:56:39;;;;;;;18.25;8.13;;;;;;;22.33;50.14;96002.88;6267887;28;20056;-71
2023/06/17 02:59:47;;;;;;;18.80;7.78;;;;;;;22.42;50.28;96009.78;6268836;28;20421;-72
2023/06/17 03:02:51;;;;;;;23.83;9.35;;;;;;;22.41;49.51;96018.81;6268757;28;20453;-71
2023/06/17 03:06:01;;;;;;;23.20;10.38;;;;;;;22.17;49.51;96003.16;6284151;28;20056;-71
2023/06/17 03:09:03;;;;;;;20.85;9.27;;;;;;;22.16;50.03;95994.25;6270413;28;20040;-71
2023/06/17 03:12:08;;;;;;;18.30;9.38;;;;;;;22.38;49.83;96002.31;6268215;28;20059;-72
2023/06/17 03:15:09;;;;;;;25.50;10.88;;;;;;;22.59;49.41;96004.09;6267764;28;20041;-70
2023/06/17 03:18:13;;;;;;;27.80;12.98;;;;;;;22.75;49.11;95998.44;6268125;28;20060;-72
2023/06/17 03:21:17;;;;;;;25.98;13.55;;;;;;;22.80;48.89;96001.38;6269441;28;20033;-72
2023/06/17 03:24:22;;;;;;;36.67;14.63;;;;;;;22.85;48.35;96001.59;6272045;28;20096;-71
2023/06/17 03:27:24;;;;;;;25.63;13.18;;;;;;;22.93;47.71;96000.63;6250115;28;20434;-72
2023/06/17 03:30:28;;;;;;;29.83;13.40;;;;;;;23.07;47.60;96006.91;6268250;28;20045;-72
2023/06/17 03:33:30;;;;;;;30.92;13.50;;;;;;;23.12;46.53;96004.44;6261585;28;20058;-72
2023/06/17 03:36:36;;;;;;;32.00;13.95;;;;;;;22.86;46.82;96022.03;6243097;28;20576;-71
2023/06/17 03:39:45;;;;;;;25.25;13.73;;;;;;;22.72;47.24;96022.16;6249721;28;20481;-71
2023/06/17 03:42:46;;;;;;;31.65;15.35;;;;;;;22.71;46.75;96005.22;6225906;28;20040;-72
2023/06/17 03:45:50;;;;;;;31.48;14.50;;;;;;;22.68;47.02;96018.22;6239618;28;20740;-71
2023/06/17 03:48:56;;;;;;;29.67;13.65;;;;;;;22.82;47.27;96004.69;6247679;28;20131;-72
2023/06/17 03:52:03;;;;;;;24.00;13.98;;;;;;;22.98;46.83;96010.78;6247622;28;20411;-72
2023/06/17 03:55:08;;;;;;;27.35;13.40;;;;;;;22.99;46.67;95999.03;6244284;28;20554;-72
2023/06/17 03:58:15;;;;;;;27.27;14.10;;;;;;;22.98;47.19;95997.38;6223092;28;20048;-73
2023/06/17 04:01:18;;;;;;;25.65;10.45;;;;;;;23.24;47.06;95997.50;6227441;28;20038;-73
2023/06/17 04:04:22;;;;;;;25.60;11.10;;;;;;;23.60;46.48;96001.75;6248070;28;20536;-72
2023/06/17 04:07:27;;;;;;;22.55;10.73;;;;;;;23.88;46.09;96009.69;6247177;28;20470;-71
2023/06/17 04:10:34;;;;;;;20.08;8.63;;;;;;;23.99;45.22;96010.97;6246367;28;20056;-72
2023/06/17 04:13:38;;;;;;;23.15;8.88;;;;;;;24.02;45.43;96025.84;6259964;28;20418;-73
2023/06/17 04:16:42;;;;;;;15.82;7.65;;;;;;;23.94;45.28;96016.13;6271965;28;20040;-71
2023/06/17 04:19:43;;;;;;;15.93;7.53;;;;;;;23.77;45.41;96012.97;6255366;28;20072;-72
2023/06/17 04:22:50;;;;;;;17.70;7.60;;;;;;;23.85;45.20;96023.53;6245377;28;20058;-71
2023/06/17 04:25:56;;;;;;;24.65;10.77;;;;;;;24.00;46.33;96034.09;6247131;28;20033;-72
2023/06/17 04:29:03;;;;;;;27.38;12.80;;;;;;;23.91;46.67;96033.47;6246928;28;20041;-72
2023/06/17 04:32:10;;;;;;;31.20;13.02;;;;;;;23.73;47.47;96017.94;6253535;28;20037;-72
2023/06/17 04:35:18;;;;;;;24.45;12.40;;;;;;;23.95;46.89;96015.91;6261827;28;20061;-73
2023/06/17 04:38:23;;;;;;;24.35;11.15;;;;;;;24.47;45.74;96013.50;6269968;28;20041;-71
2023/06/17 04:41:27;;;;;;;20.73;11.73;;;;;;;24.87;45.88;96010.75;6270560;28;20370;-71
2023/06/17 04:44:37;;;;;;;24.38;11.63;;;;;;;25.05;44.97;96010.94;6271274;28;20048;-72
2023/06/17 04:47:44;;;;;;;26.20;11.93;;;;;;;25.21;44.83;96015.03;6284196;28;20397;-72
2023/06/17 04:50:54;;;;;;;21.92;11.57;;;;;;;25.39;44.50;95995.50;6293536;28;20477;-71
2023/06/17 04:53:59;;;;;;;22.02;10.23;;;;;;;25.27;44.22;95991.81;6271462;28;20040;-71
2023/06/17 04:57:02;;;;;;;22.90;9.48;;;;;;;25.25;44.63;95993.91;6270826;28;20139;-72
2023/06/17 05:00:10;;;;;;;18.92;8.43;;;;;;;25.14;43.67;95991.84;6271522;28;20385;-72
2023/06/17 05:03:16;;;;;;;13.65;7.30;;;;;;;25.07;43.08;95979.22;6271194;28;20045;-72
2023/06/17 05:06:23;;;;;;;15.52;6.88;;;;;;;24.90;42.39;95977.22;6269113;28;20495;-71
2023/06/17 05:09:29;;;;;;;12.20;7.20;;;;;;;24.49;42.99;95968.41;6268515;28;20441;-71
2023/06/17 05:12:36;;;;;;;13.40;6.57;;;;;;;24.15;42.92;95972.94;6268962;28;20033;-71
2023/06/17 05:15:38;;;;;;;16.38;5.93;;;;;;;23.90;42.98;95982.63;6270422;28;20045;-70
2023/06/17 05:18:44;;;;;;;18.63;6.38;;;;;;;23.68;43.81;95982.75;6251430;28;20045;-71
2023/06/17 05:21:51;;;;;;;23.10;6.40;;;;;;;23.88;43.72;95982.00;6270615;28;20044;-70
2023/06/17 05:24:55;;;;;;;24.02;5.50;;;;;;;23.86;44.38;95989.44;6269220;28;20049;-71
2023/06/17 05:28:06;;;;;;;30.67;7.00;;;;;;;23.94;43.81;95987.38;6270162;28;20426;-70
2023/06/17 05:31:11;;;;;;;26.02;6.32;;;;;;;23.90;44.56;95990.69;6267647;28;20056;-71
2023/06/17 05:34:17;;;;;;;26.90;7.03;;;;;;;23.86;44.61;95987.56;6252837;28;20052;-72
2023/06/17 05:37:24;;;;;;;29.42;7.00;;;;;;;23.88;44.47;95985.50;6270406;28;20045;-70
2023/06/17 05:40:28;;;;;;;21.70;5.68;;;;;;;24.10;44.37;95980.78;6274228;28;20465;-71
2023/06/17 05:43:30;;;;;;;27.85;5.93;;;;;;;24.45;43.54;95980.59;6264971;28;20045;-71
2023/06/17 05:46:33;;;;;;;16.52;5.43;;;;;;;24.72;42.94;95975.19;6269354;28;20037;-72
2023/06/17 05:49:35;;;;;;;14.07;4.75;;;;;;;24.61;43.66;95972.09;6269482;28;20040;-71
2023/06/17 05:52:39;;;;;;;15.50;4.75;;;;;;;24.59;44.22;95979.56;6265843;28;20069;-71
2023/06/17 05:55:46;;;;;;;15.25;4.38;;;;;;;24.37;44.73;95975.41;6282602;28;20048;-72
2023/06/17 05:58:47;;;;;;;17.40;4.90;;;;;;;24.26;45.36;95973.34;6293326;28;20449;-71
2023/06/17 06:01:51;;;;;;;19.20;5.40;;;;;;;24.18;45.52;95971.72;6277122;28;20426;-71
2023/06/17 06:04:57;;;;;;;16.80;5.03;;;;;;;24.35;45.38;95985.56;6268387;28;20060;-72
2023/06/17 06:08:01;;;;;;;20.67;5.57;;;;;;;24.75;44.57;95988.22;6268373;28;20506;-71
2023/06/17 06:11:08;;;;;;;23.30;6.50;;;;;;;25.28;43.47;95996.19;6269641;28;20041;-71
2023/06/17 06:14:12;;;;;;;20.42;6.78;;;;;;;25.81;42.36;95993.22;6269218;28;20145;-71
2023/06/17 06:17:16;;;;;;;15.20;6.00;;;;;;;25.98;40.84;95994.38;6268265;28;20059;-72
2023/06/17 06:20:20;;;;;;;11.73;4.78;;;;;;;25.93;40.96;95985.28;6250927;28;20136;-71
2023/06/17 06:23:23;;;;;;;11.30;4.90;;;;;;;25.51;41.55;95988.41;6269520;28;20144;-72
2023/06/17 06:26:25;;;;;;;10.60;4.25;;;;;;;25.22;42.52;95994.31;6265606;28;20529;-72
2023/06/17 06:29:26;;;;;;;8.98;4.00;;;;;;;25.11;42.87;95998.50;6268917;28;20044;-72
2023/06/17 06:32:28;;;;;;;12.93;4.80;;;;;;;25.04;42.64;95993.13;6268870;28;20442;-70
2023/06/17 06:35:32;;;;;;;9.50;4.57;;;;;;;25.10;41.29;95994.94;6270084;28;20387;-72
2023/06/17 06:38:36;;;;;;;10.88;4.53;;;;;;;25.05;41.79;96002.84;6268528;28;20060;-71
2023/06/17 06:41:39;;;;;;;7.80;4.32;;;;;;;24.93;41.27;95992.94;6250431;28;20052;-71
2023/06/17 06:44:46;;;;;;;8.25;4.68;;;;;;;24.88;41.42;95996.25;6269343;28;20037;-71
2023/06/17 06:47:50;;;;;;;8.82;4.68;;;;;;;24.82;41.32;96005.19;6268440;28;20128;-70
2023/06/17 06:50:54;;;;;;;8.90;4.45;;;;;;;24.89;41.47;96006.00;6253500;28;20422;-73
2023/06/17 06:53:58;;;;;;;10.63;4.40;;;;;;;24.78;41.80;96004.78;6251255;28;20037;-71
2023/06/17 06:57:02;;;;;;;9.20;4.28;;;;;;;24.86;41.62;96001.03;6268540;28;20495;-73
2023/06/17 07:00:09;;;;;;;12.05;4.40;;;;;;;24.80;42.20;96007.28;6268592;28;20131;-72
2023/06/17 07:03:14;;;;;;;8.55;4.13;;;;;;;24.83;42.57;96006.84;6267788;28;20045;-72
2023/06/17 07:06:18;;;;;;;10.57;4.22;;;;;;;24.72;42.19;96012.88;6268402;28;20094;-71
2023/06/17 07:09:24;;;;;;;11.05;4.38;;;;;;;24.75;42.56;96020.50;6268409;28;20100;-71
2023/06/17 07:12:25;;;;;;;8.20;4.63;;;;;;;24.99;43.85;96017.13;6268171;28;20092;-71
2023/06/17 07:15:27;;;;;;;12.45;6.20;;;;;;;24.76;46.95;96022.16;6268558;28;20040;-71
2023/06/17 07:18:33;;;;;;;14.18;6.60;;;;;;;24.45;48.48;96020.94;6270278;28;20406;-71
2023/06/17 07:21:37;;;;;;;20.13;7.30;;;;;;;24.25;49.57;96015.53;6273802;28;20044;-71
2023/06/17 07:24:42;;;;;;;14.52;6.85;;;;;;;24.05;49.86;96018.19;6273073;28;20073;-71
2023/06/17 07:27:48;;;;;;;16.65;6.65;;;;;;;24.00;50.34;96001.84;6273127;28;20126;-73
2023/06/17 07:30:55;;;;;;;14.63;6.10;;;;;;;24.31;49.17;96003.13;6272787;28;20080;-71
2023/06/17 07:33:59;;;;;;;14.93;6.63;;;;;;;24.67;48.58;96001.91;6270067;28;20419;-71
2023/06/17 07:37:03;;;;;;;11.57;5.97;;;;;;;25.10;47.81;96008.41;6280350;28;20514;-71
2023/06/17 07:40:06;;;;;;;13.10;5.85;;;;;;;25.38;46.48;96004.63;6296954;28;20051;-71
2023/06/17 07:43:12;;;;;;;14.57;6.43;;;;;;;25.56;45.92;96014.69;6281383;28;20041;-71
2023/06/17 07:46:19;;;;;;;16.00;6.78;;;;;;;25.61;45.62;96014.88;6271335;28;20625;-72
2023/06/17 07:49:24;;;;;;;12.68;5.80;;;;;;;25.50;45.76;96024.44;6268599;28;20037;-71
2023/06/17 07:52:32;;;;;;;13.48;6.00;;;;;;;25.14;46.61;96018.75;6253974;28;20049;-73
2023/06/17 07:55:36;;;;;;;11.10;6.70;;;;;;;24.64;47.65;96020.09;6291396;28;20071;-71
2023/06/17 07:58:43;;;;;;;14.88;6.55;;;;;;;24.33;48.96;96022.56;6270193;28;20049;-71
2023/06/17 08:01:45;;;;;;;16.52;6.57;;;;;;;24.19;49.71;96022.56;6271403;28;20044;-72
2023/06/17 08:04:50;;;;;;;18.30;6.47;;;;;;;24.27;48.97;96018.84;6270651;28;20071;-72
2023/06/17 08:07:57;;;;;;;18.88;7.05;;;;;;;24.24;49.77;96018.44;6272138;28;20040;-72
2023/06/17 08:11:06;;;;;;;18.75;6.85;;;;;;;24.22;49.83;96020.50;6279661;28;20048;-71
2023/06/17 08:14:09;;;;;;;13.73;6.70;;;;;;;24.23;49.28;96030.19;6297165;28;20041;-72
2023/06/17 08:17:16;;;;;;;17.60;7.10;;;;;;;24.24;50.32;96031.88;6282335;28;20044;-72
2023/06/17 08:20:17;;;;;;;15.25;6.10;;;;;;;24.22;50.07;96026.69;6271065;28;20055;-72
2023/06/17 08:23:21;;;;;;;14.10;7.45;;;;;;;24.00;51.91;96020.66;6272220;28;20045;-73
2023/06/17 08:26:27;;;;;;;12.23;6.93;;;;;;;23.63;52.70;96022.81;6271617;28;20041;-72
2023/06/17 08:29:31;;;;;;;17.33;8.07;;;;;;;23.39;53.33;96020.69;6271864;28;20041;-72
2023/06/17 08:32:32;;;;;;;18.75;8.23;;;;;;;23.29;53.47;96015.69;6265989;28;20258;-72
2023/06/17 08:35:38;;;;;;;15.95;7.20;;;;;;;23.22;53.36;96004.09;6270392;28;20053;-72
2023/06/17 08:38:46;;;;;;;17.38;7.70;;;;;;;23.07;54.37;95996.16;6271583;28;20041;-73
2023/06/17 08:41:53;;;;;;;15.63;7.40;;;;;;;23.06;54.30;95994.53;6271576;28;20490;-72
2023/06/17 08:45:03;;;;;;;21.90;8.70;;;;;;;23.05;54.70;95987.50;6271480;28;20045;-72
2023/06/17 08:48:06;;;;;;;13.02;7.85;;;;;;;23.15;54.37;95987.94;6270020;28;20075;-72
2023/06/17 08:51:13;;;;;;;16.80;7.53;;;;;;;23.13;54.72;95986.50;6271285;28;20041;-71
2023/06/17 08:54:22;;;;;;;16.00;8.18;;;;;;;23.20;53.93;95985.50;6271553;28;20044;-71
2023/06/17 08:57:29;;;;;;;14.40;8.32;;;;;;;23.30;54.23;95991.34;6271809;28;20052;-71
2023/06/17 09:00:38;;;;;;;19.15;9.77;;;;;;;23.30;54.70;95994.00;6269311;28;20170;-70
2023/06/17 09:03:43;;;;;;;18.38;9.68;;;;;;;23.44;55.09;95999.41;6269489;28;20045;-71
2023/06/17 09:06:48;;;;;;;19.80;9.52;;;;;;;23.43;54.78;95989.72;6270969;28;20060;-73
2023/06/17 09:10:02;;;;;;;23.38;11.63;;;;;;;23.63;54.75;96001.34;6269547;28;20036;-72
2023/06/17 09:13:08;;;;;;;21.42;11.43;;;;;;;23.51;55.42;96008.34;6269158;28;20052;-72
2023/06/17 09:16:10;;;;;;;14.57;7.38;;;;;;;23.40;55.22;96007.06;6269309;28;20105;-71
2023/06/17 09:19:13;;;;;;;12.52;6.72;;;;;;;23.42;55.09;96014.91;6270014;28;20399;-71
2023/06/17 09:22:16;;;;;;;;;;;;;;;23.53;54.71;96014.34;6270976;28;20143;-71
2023/06/17 09:25:20;;;;;;;13.13;8.05;;;;;;;23.31;55.70;96014.44;6264423;28;19920;-72
2023/06/17 09:28:25;;;;;;;19.20;10.20;;;;;;;23.26;56.12;96016.06;6269618;28;20226;-71
2023/06/17 09:31:31;;;;;;;20.85;10.95;;;;;;;23.21;56.51;96014.00;6268408;28;20048;-72
2023/06/17 09:34:35;;;;;;;21.63;10.13;;;;;;;23.13;56.91;96010.63;6270124;28;20411;-71
2023/06/17 09:37:41;;;;;;;16.98;8.63;;;;;;;23.21;56.92;96018.53;6269187;28;20474;-72
2023/06/17 09:40:50;;;;;;;12.57;6.82;;;;;;;23.03;56.83;96021.75;6269612;28;20437;-71
2023/06/17 09:43:58;;;;;;;11.20;6.93;;;;;;;22.86;57.23;96011.31;6266912;28;20040;-71
2023/06/17 09:47:08;;;;;;;12.15;6.32;;;;;;;22.69;58.48;96026.03;6250911;28;20049;-72
2023/06/17 09:50:14;;;;;;;12.18;6.28;;;;;;;22.56;58.68;96020.59;6244081;28;20061;-73
2023/06/17 09:53:20;;;;;;;10.20;5.68;;;;;;;22.37;59.22;96036.34;6256767;28;20135;-71
2023/06/17 09:56:26;;;;;;;12.18;6.35;;;;;;;22.13;60.09;96026.81;6266436;28;20037;-72
2023/06/17 09:59:35;;;;;;;11.27;6.25;;;;;;;22.00;60.65;96020.53;6265936;28;20045;-71
2023/06/17 10:02:39;;;;;;;10.15;6.40;;;;;;;21.75;61.95;96020.88;6267154;28;20131;-70
2023/06/17 10:05:44;;;;;;;20.02;5.68;;;;;;;21.59;62.81;96024.63;6268129;28;20182;-72
2023/06/17 10:08:52;;;;;;;9.90;4.88;;;;;;;21.31;63.09;96021.78;6268912;28;20037;-71
2023/06/17 10:11:59;;;;;;;11.35;6.03;;;;;;;20.77;65.33;95998.84;6277643;28;20577;-69
2023/06/17 10:15:06;;;;;;;12.95;5.47;;;;;;;20.41;66.03;95993.38;6267436;28;20052;-67
2023/06/17 10:18:14;;;;;;;7.40;3.90;;;;;;;20.25;63.96;95985.53;6264852;28;20418;-69
2023/06/17 10:21:20;;;;;;;7.60;3.10;;;;;;;19.88;63.24;95971.97;6268177;28;20044;-69
2023/06/17 10:24:25;;;;;;;6.13;3.58;;;;;;;20.16;65.35;95972.25;6266238;28;20040;-69
2023/06/17 10:27:28;;;;;;;5.23;3.57;;;;;;;20.79;65.00;95964.75;6267409;28;20041;-70
2023/06/17 10:30:34;;;;;;;6.88;3.40;;;;;;;21.52;63.61;95973.69;6265492;28;21011;-69
2023/06/17 10:33:47;;;;;;;5.55;3.00;;;;;;;22.12;60.87;95965.38;6267741;28;20414;-71
2023/06/17 10:37:01;;;;;;;4.72;3.38;;;;;;;22.53;58.71;95951.28;6269311;28;20045;-69
2023/06/17 10:40:29;;;;;;;6.10;3.47;;;;;;;22.99;57.38;95950.75;6269011;28;20045;-70
2023/06/17 10:43:37;;;;;;;6.35;3.17;;;;;;;23.36;55.50;95957.50;6269490;28;20051;-70
2023/06/17 10:46:40;;;;;;;6.88;3.33;;;;;;;23.70;54.34;95943.13;6268168;28;20075;-70
2023/06/17 10:49:45;;;;;;;16.40;10.80;;;;;;;23.96;53.15;95941.50;6263064;28;20045;-70
2023/06/17 10:52:54;;;;;;;8.43;5.65;;;;;;;24.16;52.33;95952.25;6247645;28;20057;-70
2023/06/17 10:55:57;;;;;;;7.15;4.32;;;;;;;24.18;52.97;95940.28;6230823;28;20049;-70
2023/06/17 10:59:03;;;;;;;7.93;3.70;;;;;;;24.24;52.20;95943.16;6231053;28;20358;-69
2023/06/17 11:02:10;;;;;;;9.32;4.65;;;;;;;24.31;52.59;95949.34;6265852;28;20037;-70
2023/06/17 11:05:16;;;;;;;10.32;4.75;;;;;;;24.34;52.04;95954.31;6273106;28;20037;-70
2023/06/17 11:08:21;;;;;;;7.60;4.93;;;;;;;24.40;51.55;95953.47;6271154;28;20037;-71
2023/06/17 11:11:32;;;;;;;8.60;5.80;;;;;;;24.21;51.91;95955.16;6272914;28;20066;-71
2023/06/17 11:14:39;;;;;;;7.30;5.03;;;;;;;24.17;51.81;95943.97;6273136;28;20417;-70
2023/06/17 11:17:48;;;;;;;7.78;5.03;;;;;;;24.25;51.65;95934.06;6275257;28;20097;-70
2023/06/17 11:20:54;;;;;;;9.32;5.05;;;;;;;24.27;51.90;95945.44;6270789;28;20040;-69
2023/06/17 11:24:01;;;;;;;6.53;4.57;;;;;;;24.36;51.58;95933.44;6268593;28;20051;-69
2023/06/17 11:27:06;;;;;;;8.60;4.30;;;;;;;24.32;51.04;95929.53;6272194;28;20033;-70
2023/06/17 11:30:08;;;;;;;10.98;4.05;;;;;;;24.36;51.06;95936.13;6272143;28;20406;-70
2023/06/17 11:33:12;;;;;;;10.60;4.93;;;;;;;24.18;51.18;95934.91;6269959;28;20040;-71
2023/06/17 11:36:17;;;;;;;12.13;5.00;;;;;;;24.07;51.63;95930.16;6249979;28;20049;-70
2023/06/17 11:39:23;;;;;;;9.02;4.82;;;;;;;24.01;51.45;95932.84;6247286;28;20046;-69
2023/06/17 11:42:24;;;;;;;10.65;5.68;;;;;;;23.90;52.62;95936.97;6246292;28;20053;-69
2023/06/17 11:45:28;;;;;;;9.02;5.60;;;;;;;23.90;51.48;95945.84;6244090;28;20495;-68
2023/06/17 11:48:34;;;;;;;11.15;5.00;;;;;;;23.75;50.59;95951.41;6240977;28;20430;-71
2023/06/17 11:51:48;;;;;;;8.63;5.20;;;;;;;23.60;50.05;95942.66;6244355;28;20197;-70
2023/06/17 11:54:55;;;;;;;11.40;6.65;;;;;;;23.48;50.48;95937.06;6241427;28;20080;-75
2023/06/17 11:58:02;;;;;;;13.10;5.90;;;;;;;23.31;51.27;95939.28;6246210;28;20491;-69
2023/06/17 12:01:08;;;;;;;9.00;4.95;;;;;;;23.19;51.68;95946.28;6244947;28;20050;-69
2023/06/17 12:04:13;;;;;;;8.20;4.75;;;;;;;23.17;51.26;95937.59;6245791;28;20056;-68
2023/06/17 12:07:18;;;;;;;5.53;4.38;;;;;;;22.97;52.05;95931.34;6246828;28;20045;-70
2023/06/17 12:10:19;;;;;;;6.95;4.50;;;;;;;22.98;51.60;95935.66;6242010;28;20523;-68
2023/06/17 12:13:23;;;;;;;8.60;4.30;;;;;;;22.80;52.53;95936.16;6243838;28;20124;-67
2023/06/17 12:16:31;;;;;;;7.18;4.18;;;;;;;22.60;53.33;95936.88;6245281;28;20276;-67
2023/06/17 12:19:37;;;;;;;6.68;3.90;;;;;;;22.57;53.80;95925.75;6244680;28;20045;-69
2023/06/17 12:22:41;;;;;;;5.80;3.53;;;;;;;22.40;54.37;95923.38;6246618;28;20160;-68
2023/06/17 12:25:47;;;;;;;4.47;3.30;;;;;;;22.29;54.81;95921.22;6246945;28;20136;-66
2023/06/17 12:28:54;;;;;;;7.85;3.92;;;;;;;22.30;54.02;95924.72;6269954;28;20040;-68
2023/06/17 12:31:58;;;;;;;5.72;3.47;;;;;;;22.15;53.98;95922.94;6246273;28;20037;-67
2023/06/17 12:35:00;;;;;;;4.88;3.67;;;;;;;22.03;54.19;95912.97;6243497;28;20056;-67
2023/06/17 12:38:04;;;;;;;6.35;4.22;;;;;;;21.57;55.96;95891.97;6245821;28;20049;-68
2023/06/17 12:41:11;;;;;;;8.60;5.05;;;;;;;21.14;57.44;95871.34;6266198;28;20040;-68
2023/06/17 12:44:19;;;;;;;8.10;4.35;;;;;;;20.69;58.04;95859.94;6258628;28;20053;-67
2023/06/17 12:47:23;;;;;;;5.35;4.40;;;;;;;20.42;59.14;95872.94;6269614;28;20557;-67
2023/06/17 12:50:27;;;;;;;14.38;7.50;;;;;;;20.72;57.89;95853.41;6267795;28;20049;-68
2023/06/17 12:53:33;;;;;;;9.85;6.30;;;;;;;20.58;58.11;95882.66;6271485;28;20037;-68
2023/06/17 12:56:41;;;;;;;12.50;7.65;;;;;;;19.98;59.87;95875.59;6269743;28;20040;-67
2023/06/17 12:59:45;;;;;;;11.77;7.10;;;;;;;19.57;61.59;95846.59;6270109;28;20048;-66
2023/06/17 13:02:49;;;;;;;12.50;6.40;;;;;;;19.31;62.30;95838.16;6266195;28;20406;-67
2023/06/17 13:05:54;;;;;;;6.68;5.00;;;;;;;19.09;63.24;95848.66;6267813;28;20041;-68
2023/06/17 13:08:58;;;;;;;8.38;5.47;;;;;;;19.00;63.52;95817.72;6272759;28;20041;-69
2023/06/17 13:12:02;;;;;;;9.10;5.60;;;;;;;19.25;62.14;95840.53;6270285;28;20043;-68
2023/06/17 13:15:04;;;;;;;10.30;5.97;;;;;;;19.18;62.42;95831.56;6268320;28;20062;-68
2023/06/17 13:18:07;;;;;;;8.68;6.13;;;;;;;19.16;62.20;95846.91;6268956;28;20044;-67
2023/06/17 13:21:09;;;;;;;;;;;;;;;19.05;62.47;95836.66;6268002;28;20051;-66
2023/06/17 13:24:13;;;;;;;11.75;7.78;;;;;;;19.25;63.38;95840.53;6270467;28;19920;-65
2023/06/17 13:27:20;;;;;;;10.90;7.20;;;;;;;19.31;64.69;95841.66;6270411;28;20041;-69
2023/06/17 13:30:26;;;;;;;10.57;7.03;;;;;;;19.29;65.28;95852.50;6250302;28;20049;-65
2023/06/17 13:33:31;;;;;;;10.52;7.50;;;;;;;19.19;65.26;95848.41;6263727;28;20379;-74
2023/06/17 13:36:42;;;;;;;8.50;6.50;;;;;;;19.08;65.14;95863.00;6269588;28;20064;-74
2023/06/17 13:39:45;;;;;;;12.40;6.15;;;;;;;18.89;65.41;95884.78;6262937;28;20501;-77
2023/06/17 13:42:49;;;;;;;9.25;6.45;;;;;;;18.71;66.51;95909.81;6268825;28;20033;-67
2023/06/17 13:45:50;;;;;;;7.05;5.35;;;;;;;18.59;66.80;95905.84;6268413;28;20041;-67
2023/06/17 13:48:55;;;;;;;12.65;6.10;;;;;;;18.52;66.99;95896.91;6267857;28;20025;-67
2023/06/17 13:52:02;;;;;;;8.32;5.15;;;;;;;18.52;67.03;95923.56;6267182;28;20056;-70
2023/06/17 13:55:10;;;;;;;8.07;5.25;;;;;;;18.44;67.08;95915.59;6263393;28;20055;-73
2023/06/17 13:58:15;;;;;;;6.50;4.32;;;;;;;18.34;67.41;95919.28;6261486;28;20147;-67
2023/06/17 14:01:16;;;;;;;8.95;4.88;;;;;;;18.27;68.40;95936.94;6263679;28;20075;-65
2023/06/17 14:04:20;;;;;;;9.52;5.70;;;;;;;18.23;67.95;95956.91;6267383;28;20037;-66
2023/06/17 14:07:24;;;;;;;12.18;7.47;;;;;;;18.11;68.25;95947.59;6267579;28;20052;-67
2023/06/17 14:10:26;;;;;;;11.82;6.38;;;;;;;17.99;68.87;95956.94;6249093;28;20037;-66
2023/06/17 14:13:35;;;;;;;13.57;6.30;;;;;;;17.99;69.16;95964.94;6267167;28;20044;-66
2023/06/17 14:16:36;;;;;;;10.07;5.40;;;;;;;17.86;69.53;95955.63;6266571;28;20045;-66
2023/06/17 14:19:40;;;;;;;11.90;6.25;;;;;;;17.63;70.11;95947.44;6250533;28;20045;-67
2023/06/17 14:22:44;;;;;;;13.70;6.93;;;;;;;17.38;71.49;95957.25;6262586;28;20053;-67